Aeroporto :
LOGIN :

Iscrizione | Disclaimer

   EN    FR    IT 

 










Sommario :    VFR   VFR Marginale   IFR   IFR Intensivo   IFR Molto Intensivo
Visibilità : 
Base nubi : 
>= 8 km
>= 3000ft
5 / 8 km
1000 / 3000 ft
1500m / 5 km
500 / 1000 ft
800 / 1500m
200 / 500 ft
< 800m
< 200 ft
Simboli :   Temporali  Nebbia  Neve Forte  Precipitazioni Forti  Vento > 20 kt
SIGMETs :   Varie  Temporali  Ghiacco  Turbolenza  Onda orograficha  Ceneri Vulcaniche






- Altitudine del aeroporto : 74 ft
- Codice IATA : EIN


EHEH - Eindhoven

ULTIMO METAR :
  • 230455Z AUTO VRB02KT 0700 R21/0500N FG OVC000 07/07 Q1025 RED TEMPO 0500 FG BKN001 BKN050 BECMG 1500 BR SCT002 BKN050

METARs OBSOLETI :
  • 230442Z AUTO 19003KT 180V270 0750 R21/0325N FG OVC000 07/07 Q1025 RED TEMPO 0500 FG BKN001 BKN050 BECMG 1500 BR SCT002 BKN050
  • 230432Z AUTO 19003KT 1200 R21/0275N BR BKN000 OVC001 07/07 Q1025 RED BECMG 1500 BR SCT002 BKN050
  • 230425Z AUTO 20003KT 1000 BR OVC000 07/06 Q1025 RED NOSIG
  • 230406Z AUTO 21003KT 0450 FG OVC000 06/06 Q1025 RED
  • 230355Z AUTO 22003KT 0350 FG OVC000 06/06 Q1025 RED
  • 230348Z AUTO 21003KT 0350 FG SCT000 BKN037 BKN042 05/05 Q1025 RED
  • 230325Z AUTO VRB02KT 0200 // OVC000 05/05 Q1025 RE// RED
  • 230256Z AUTO 22003KT 0250 FG BKN000 06/06 Q1024 RED
  • 230255Z AUTO 22004KT 0350 FG SCT000 06/06 Q1024 RED
  • 230231Z AUTO 23005KT 1100 BR FEW190 05/05 Q1024 AMB
  • 230225Z AUTO 23005KT 2600 BR BKN190 05/05 Q1024 YLO

TAF TAF EHEH
Valido dal 23 a 00 ore il 24 a 06 ore UTC


222320Z 2300/2406 20004KT CAVOK
BECMG 2300/2302 4000 BR MIFG
PROB40 2304/2308 0800 FG
BECMG 2307/2309 6000 NSW
PROB40 2308/2311 SCT005
TEMPO 2310/2318 SCT015
PROB40 2323/2406 2000 BR MIFG



MetMap, La meteo Aeronautica in un colpo d'occhio ! - Copyright ORBIFLY Dicembre 2007 - Disclaimer

ORBIFLY MET'MAP TEAM :

Programmazione e sviluppo : Alexandra Zaïnal
Concezione : Baudouin d'Aumeries
Aiuto per la programmazione : Marc-Olivier Méhu
Supporto tecnico e logistico : Manuel Goepfert
Aiuto per la traduzione : Arnaldo La Scala

Contatto : metmap@orbifly.com




FONTI E CREDITI :

   NOAA